»·PEaware :: N914SP KLAS-KLAX

N914SP :: KLAS-KLAX

FLIGHT INFORMATION

Flight Status: Arrived
Operator: Privately registered:
United States
More flights under this callsign
Pilot: Tim L. (7088)
Aircraft: CESSNA 680 CITATION SOVEREIGN
(C680)
More flights by this aircraft type
Origin: KLAS McCarran Intl
United States
Destination: KLAX Los Angeles Intl
United States
More flights between these airports :: More routes between these airports
Route: BOACH6 HEC RIIVR2
File this flight plan on PilotEdge
Remarks: Practice SIDS / STARS
Altitude:
(Current/Filed)
26,000ft
Speed:
(Current/Filed)
430kts
Departed: 30-Jun-15 04:28 PM
Arrived: 30-Jun-15 05:14 PM
Distance/Time
Traveled:
205nm/0:45
Distance/Time
To Go:
Arrived

Flight Plot

Page will automatically refresh every two minutes.


Map Options




Map Legend


Flown Route
Filed Route
Departure Airport
Arrival Airport
Navaid (VOR, NDB)
Fix

Horizontal Profiles

Position Reports

Time Latitude Longitude Heading Altitude Ground
Speed
30-Jun-15 16:11 36.081971 -115.170426 178 2145ft 0kts
30-Jun-15 16:12 36.081971 -115.170426 178 2145ft 0kts
30-Jun-15 16:13 36.081971 -115.170426 178 2145ft 0kts
30-Jun-15 16:14 36.081971 -115.170426 178 2145ft 0kts
30-Jun-15 16:15 36.081971 -115.170426 178 2145ft 0kts
30-Jun-15 16:16 36.081971 -115.170426 178 2145ft 0kts
30-Jun-15 16:17 36.081969 -115.170426 178 2145ft 0kts
30-Jun-15 16:18 36.082495 -115.168622 24 2145ft 10kts
30-Jun-15 16:19 36.085467 -115.166993 24 2145ft 12kts
30-Jun-15 16:20 36.088123 -115.165422 25 2145ft 10kts
30-Jun-15 16:21 36.091441 -115.163522 24 2145ft 10kts
30-Jun-15 16:22 36.094166 -115.161946 24 2145ft 12kts
30-Jun-15 16:23 36.097197 -115.160212 24 2145ft 8kts
30-Jun-15 16:24 36.099619 -115.158489 64 2145ft 9kts
30-Jun-15 16:25 36.099829 -115.157650 82 2145ft 0kts
30-Jun-15 16:26 36.099196 -115.156718 194 2145ft 12kts
30-Jun-15 16:27 36.063305 -115.178097 205 3377ft 197kts
30-Jun-15 16:28 36.013731 -115.208283 234 4784ft 202kts
30-Jun-15 16:29 35.985915 -115.269316 241 5826ft 205kts
30-Jun-15 16:30 35.941421 -115.304470 187 6904ft 211kts
30-Jun-15 16:31 35.881635 -115.312223 185 8382ft 247kts
30-Jun-15 16:32 35.807096 -115.309388 174 10723ft 279kts
30-Jun-15 16:33 35.729945 -115.300605 175 13173ft 273kts
30-Jun-15 16:34 35.658517 -115.323196 223 15441ft 300kts
30-Jun-15 16:35 35.598891 -115.401759 226 17489ft 326kts
30-Jun-15 16:36 35.535898 -115.486291 226 19188ft 344kts
30-Jun-15 16:37 35.470448 -115.573986 225 20874ft 353kts
30-Jun-15 16:38 35.403686 -115.663079 225 22585ft 355kts
30-Jun-15 16:39 35.336551 -115.752575 226 24072ft 359kts
30-Jun-15 16:40 35.268202 -115.843398 225 25291ft 367kts
30-Jun-15 16:41 35.197732 -115.936746 226 25968ft 385kts
30-Jun-15 16:42 35.122857 -116.035718 227 25972ft 407kts
30-Jun-15 16:43 35.045112 -116.138548 227 25970ft 412kts
30-Jun-15 16:44 34.967490 -116.240648 228 25973ft 411kts
30-Jun-15 16:45 34.888323 -116.344542 228 25925ft 428kts
30-Jun-15 16:46 34.806897 -116.450796 226 24391ft 425kts
30-Jun-15 16:47 34.715663 -116.539821 217 23911ft 420kts
30-Jun-15 16:48 34.623289 -116.626842 217 22964ft 416kts
30-Jun-15 16:49 34.533017 -116.711661 217 21859ft 408kts
30-Jun-15 16:50 34.444103 -116.794978 217 20867ft 401kts
30-Jun-15 16:51 34.356277 -116.876885 219 20065ft 398kts
30-Jun-15 16:52 34.272455 -116.955396 212 19258ft 358kts
30-Jun-15 16:53 34.198390 -117.024127 213 18102ft 336kts
30-Jun-15 16:54 34.124465 -117.092697 211 18023ft 344kts
30-Jun-15 16:55 34.072288 -117.189310 234 16839ft 353kts
30-Jun-15 16:56 34.043414 -117.297508 256 14914ft 344kts
30-Jun-15 16:57 34.032933 -117.407958 259 12990ft 323kts
30-Jun-15 16:58 34.023086 -117.512260 261 11792ft 317kts
30-Jun-15 16:59 34.013974 -117.610621 262 11123ft 270kts
30-Jun-15 17:00 34.006216 -117.692545 262 10004ft 242kts
30-Jun-15 17:01 33.998349 -117.773678 261 9947ft 243kts
30-Jun-15 17:02 33.990598 -117.853078 261 9132ft 220kts
30-Jun-15 17:03 33.984061 -117.919422 260 8002ft 191kts
30-Jun-15 17:04 33.977774 -117.982719 260 6881ft 189kts
30-Jun-15 17:05 33.972006 -118.040729 259 5898ft 167kts
30-Jun-15 17:06 33.966477 -118.096000 259 4924ft 164kts
30-Jun-15 17:07 33.961071 -118.149873 259 4003ft 163kts
30-Jun-15 17:08 33.955627 -118.203826 260 3095ft 161kts
30-Jun-15 17:09 33.950236 -118.256923 261 2213ft 159kts
30-Jun-15 17:10 33.944966 -118.308706 262 1369ft 135kts
30-Jun-15 17:11 33.940884 -118.348384 262 725ft 112kts
30-Jun-15 17:12 33.937051 -118.385559 263 142ft 97kts
30-Jun-15 17:13 33.934906 -118.401767 236 130ft 25kts
30-Jun-15 17:14 33.933748 -118.402729 179 130ft 12kts

Navigation Log

Ident Type
Flight plan parsing failed, navigation log unavailable